Cercs-Sant Jordi





Hora UTC 20:35
Temperatura 0.6 ºC
Humitat 92.9 %
Pressió hPa
Pluja 0.0 mm
Velocitat vent 0.2 km/h
Direcció vent N
Radiació solar 0.1 W/m²

Dades diàries 2019-11-15



Hora UTC (hivern +1h; estiu +2h)
Temperatura (ºC) Humitat (%) Velocitat vent (km/h) Precipitació (mm) Radiació solar (W/m²)
Hora UTC Aire Humitat Vel. Dir. Vel. Max Dir. Intent. màx 5 min. Rad. Sol.
00:05 1.3 94.2 4.7 W 4.7 W 0.0 0.1
00:10 1.3 94.1 4.0 WNW 6.1 WNW 0.0 0.1
00:15 1.3 93.7 4.0 SW 8.8 SW 0.0 0.2
00:20 0.9 94.2 1.4 WSW 6.1 SW 0.0 0.1
00:25 0.8 95.1 0.0 NW 3.4 NNW 0.0 0.1
00:30 0.8 95.8 0.5 NW 3.4 NW 0.0 0.1
00:35 0.9 96.2 0.0 NNE 0.0 NNW 0.0 0.2
00:40 0.8 95.9 0.0 NNE 0.0 SSE 0.0 0.2
00:45 0.7 96.1 0.0 NNE 0.0 SSE 0.0 0.2
00:50 0.7 96.5 0.0 NNE 0.0 SSE 0.0 0.2
00:55 0.8 97.0 0.0 NNE 0.0 ENE 0.0 0.2
01:00 0.7 97.0 0.0 NNE 0.0 ENE 0.0 0.1
01:05 0.6 96.9 0.0 NNE 0.0 ENE 0.0 0.2
01:10 0.4 96.7 0.0 NNE 0.0 SW 0.0 0.2
01:15 0.5 97.3 0.8 W 3.4 W 0.0 0.2
01:20 0.5 97.5 1.2 W 3.4 W 0.0 0.2
01:25 0.6 97.7 1.3 S 6.1 SSE 0.0 0.1
01:30 0.5 97.2 1.1 WSW 6.1 WSW 0.0 0.1
01:35 0.6 97.4 0.0 NNE 0.0 WNW 0.0 0.1
01:40 0.8 97.4 0.0 NNE 0.0 WNW 0.0 0.2
01:45 1.0 97.2 0.1 SSE 3.4 SSE 0.0 0.2
01:50 0.9 96.5 0.8 S 6.1 S 0.0 0.2
01:55 0.9 96.2 0.0 NNE 0.0 SW 0.0 0.1
02:00 1.0 96.5 0.7 ENE 3.4 NE 0.0 0.1
02:05 1.1 96.4 1.7 NE 6.1 ENE 0.0 0.1
02:10 1.2 95.4 1.5 NNE 6.1 NE 0.0 0.1
02:15 1.2 95.3 0.4 ENE 6.1 ENE 0.0 0.1
02:20 1.2 95.4 1.4 WSW 6.1 WSW 0.0 0.1
02:25 1.2 95.9 2.7 WNW 6.1 NW 0.0 0.2
02:30 1.2 96.1 1.7 NE 6.1 ENE 0.0 0.2
02:35 1.4 94.1 1.7 NNW 8.8 NE 0.0 0.2
02:40 1.5 92.8 1.5 NNW 6.1 NNE 0.0 0.1
02:45 1.4 93.1 0.5 WNW 3.4 WSW 0.0 0.2
02:50 1.3 93.7 2.9 NNW 8.8 NNW 0.0 0.1
02:55 1.4 92.8 2.7 NNW 8.8 WNW 0.0 0.1
03:00 1.4 91.5 3.9 N 11.5 NNE 0.0 0.1
03:05 1.4 91.1 4.0 N 14.2 N 0.0 0.2
03:10 1.4 90.1 2.3 NNW 8.8 NNE 0.0 0.1
03:15 1.3 91.5 4.6 N 11.5 NNW 0.0 0.1
03:20 1.4 91.2 5.2 N 11.5 N 0.0 0.1
03:25 1.4 91.1 5.4 NNW 11.5 NW 0.0 0.1
03:30 1.5 89.4 6.3 N 16.9 NNW 0.0 0.1
03:35 1.5 88.7 5.7 NNW 14.2 N 0.0 0.1
03:40 1.6 89.0 4.0 NNW 11.5 NNE 0.0 0.1
03:45 1.4 89.8 4.8 NW 11.5 WNW 0.0 0.1
03:50 1.4 89.3 8.3 WNW 14.2 WNW 0.0 0.1
03:55 1.3 89.2 4.2 WNW 11.5 WNW 0.0 0.2
04:00 1.3 89.2 1.4 N 8.8 NW 0.0 0.1
04:05 1.0 90.6 0.3 WNW 3.4 W 0.0 0.2
04:10 0.7 92.2 0.0 NNE 0.0 NNW 0.0 0.1
04:15 0.6 92.8 1.2 NE 6.1 ENE 0.0 0.1
04:20 0.8 91.0 3.1 NNW 11.5 NW 0.0 0.1
04:25 1.0 89.3 6.5 NW 16.9 NW 0.0 0.1
04:30 1.1 88.3 5.5 NW 11.5 NW 0.0 0.1
04:35 1.0 89.0 4.6 WNW 14.2 NW 0.0 0.1
04:40 0.9 88.8 4.2 NW 11.5 N 0.0 0.1
04:45 0.9 88.5 3.9 NW 8.8 NNW 0.0 0.2
04:50 0.8 89.1 2.8 NNW 8.8 NW 0.0 0.2
04:55 0.9 88.9 2.0 N 8.8 N 0.0 0.2
05:00 0.6 90.1 1.1 WNW 6.1 WNW 0.0 0.1
05:05 0.4 91.4 1.3 WNW 6.1 W 0.0 0.1
05:10 0.4 91.7 0.7 WSW 6.1 W 0.0 0.2
05:15 0.2 92.5 0.6 WNW 3.4 WNW 0.0 0.1
05:20 0.2 92.9 0.0 NNE 0.0 NNE 0.0 0.2
05:25 0.2 92.6 0.0 ENE 3.4 ENE 0.0 0.1
05:30 0.2 92.7 2.9 NW 8.8 NNE 0.0 0.1
05:35 0.3 91.6 1.5 NNW 8.8 N 0.0 0.2
05:40 0.3 91.9 0.0 NNE 0.0 NW 0.0 0.2
05:45 0.1 92.4 0.1 NE 3.4 NE 0.0 0.1
05:50 0.0 93.5 0.3 NW 6.1 NNE 0.0 0.1
05:55 0.1 92.9 0.6 NNW 8.8 NNE 0.0 0.1
06:00 0.0 92.2 0.8 W 6.1 SW 0.0 0.1
06:05 0.1 92.2 2.8 NNW 8.8 NNW 0.0 0.1
06:10 0.3 91.2 4.9 NW 11.5 NW 0.0 0.1
06:15 0.2 90.8 3.8 WNW 11.5 NW 0.0 0.1
06:20 0.3 90.5 4.4 WNW 8.8 WNW 0.0 0.2
06:25 0.3 90.0 4.6 W 11.5 NW 0.0 0.3
06:30 0.2 90.5 0.2 WNW 3.4 WNW 0.0 0.5
06:35 0.0 91.6 1.6 NW 11.5 WNW 0.0 1.1
06:40 0.1 91.9 2.4 NW 8.8 WNW 0.0 2.3
06:45 -0.1 91.2 1.2 SSW 6.1 S 0.0 3.9
06:50 -0.3 92.6 0.0 NNE 0.0 WSW 0.0 5.9
06:55 -0.3 93.2 0.0 NNE 0.0 WSW 0.0 8.1
07:00 -0.1 92.9 0.2 WNW 3.4 W 0.0 10.1
07:05 -0.3 92.7 1.9 NW 8.8 WNW 0.0 12.2
07:10 -0.1 92.2 4.4 WNW 11.5 WNW 0.0 14.3
07:15 0.1 91.7 2.8 NNW 11.5 NNE 0.0 16.4
07:20 0.4 90.0 4.5 NW 16.9 N 0.0 18.6
07:25 0.3 89.9 6.1 NW 11.5 NNW 0.0 20.9
07:30 0.5 89.6 8.4 NW 14.2 NNW 0.0 23.4
07:35 0.6 88.7 9.6 NW 16.9 NW 0.0 26.5
07:40 0.7 88.5 3.5 NNW 8.8 NW 0.0 30.5
07:45 0.6 88.6 3.2 NNW 8.8 NNW 0.0 34.3
07:50 0.7 88.3 1.7 N 6.1 WNW 0.0 37.4
07:55 0.8 89.0 1.2 NNE 6.1 NNW 0.0 41.8
08:00 0.8 89.6 2.5 NNW 8.8 NNW 0.0 79.9
08:05 0.9 89.7 4.6 NNW 19.6 NE 0.0 132.5
08:10 1.0 89.8 4.3 NNW 14.2 WNW 0.0 160.1
08:15 1.1 88.9 3.4 WNW 8.8 ENE 0.0 185.2
08:20 1.2 88.0 1.1 NNW 6.1 WSW 0.0 198.8
08:25 1.9 86.1 0.1 WNW 3.4 SW 0.0 219.3
08:30 2.6 83.6 0.9 NNE 6.1 NNE 0.0 232.3
08:35 2.7 82.1 4.5 NE 11.5 NNE 0.0 231.9
08:40 2.3 83.9 6.0 NNE 11.5 NE 0.0 242.4
08:45 2.2 85.3 5.8 NNE 14.2 NNE 0.0 257.1
08:50 2.0 86.5 7.6 NNE 14.2 WNW 0.0 267.0
08:55 2.0 86.7 8.7 NNE 16.9 NNE 0.0 270.6
09:00 2.0 86.1 10.0 NNE 16.9 NE 0.0 284.8
09:05 2.3 85.6 7.6 NNE 14.2 NE 0.0 293.4
09:10 2.6 83.9 7.8 NNE 14.2 NE 0.0 286.2
09:15 2.8 81.9 5.8 NNE 11.5 NE 0.0 304.7
09:20 3.1 80.4 5.4 NNE 14.2 NNE 0.0 323.9
09:25 3.1 80.1 4.8 NNE 14.2 NE 0.0 325.2
09:30 3.3 80.0 4.6 NE 11.5 ENE 0.0 345.2
09:35 3.7 79.1 6.1 NNE 14.2 NNE 0.0 364.7
09:40 3.7 78.3 7.1 NE 11.5 NE 0.0 375.8
09:45 4.0 77.2 4.8 NNE 11.5 NE 0.0 384.4
09:50 4.5 76.3 2.0 E 8.8 NE 0.0 392.5
09:55 5.4 73.4 3.0 SE 8.8 SE 0.0 406.4
10:00 5.7 71.3 4.0 E 8.8 SE 0.0 419.7
10:05 5.3 71.2 5.7 ENE 8.8 ENE 0.0 425.1
10:10 5.1 72.5 3.4 NE 6.1 N 0.0 442.4
10:15 5.5 72.1 2.8 NE 8.8 NNE 0.0 450.0
10:20 5.4 71.2 7.0 NE 11.5 NE 0.0 465.3
10:25 5.3 70.8 4.5 NE 11.5 NE 0.0 468.4
10:30 5.6 69.8 3.8 NNE 8.8 E 0.0 474.0
10:35 5.8 68.6 3.8 NE 8.8 NE 0.0 487.2
10:40 5.9 66.7 2.8 NE 8.8 NE 0.0 395.3
10:45 6.4 66.0 3.3 SE 6.1 E 0.0 404.9
10:50 6.5 63.0 0.4 NE 3.4 N 0.0 314.9
10:55 6.6 67.2 1.9 WSW 6.1 SSW 0.0 269.0
11:00 6.5 67.1 1.9 S 6.1 SSW 0.0 132.6
11:05 6.3 68.7 4.0 SSW 6.1 S 0.0 129.4
11:10 6.1 71.7 1.3 S 6.1 SSW 0.0 138.9
11:15 6.1 71.6 2.5 SSE 6.1 S 0.0 277.8
11:20 6.4 71.0 2.0 SSE 6.1 SE 0.0 311.1
11:25 6.5 72.0 2.0 ESE 8.8 SE 0.0 227.8
11:30 6.4 72.9 5.1 ESE 11.5 ESE 0.0 166.4
11:35 6.4 73.6 4.9 ESE 11.5 SSE 0.0 169.4
11:40 6.2 73.3 3.6 ESE 8.8 SE 0.0 163.1
11:45 6.2 74.3 5.3 SE 14.2 ESE 0.0 156.2
11:50 6.2 74.5 2.0 SE 8.8 ESE 0.0 163.3
11:55 6.2 75.6 3.0 SE 14.2 ESE 0.0 155.7
12:00 6.3 76.5 3.7 SE 11.5 ESE 0.0 177.3
12:05 6.3 76.9 6.1 SE 16.9 ESE 0.0 242.5
12:10 6.3 77.9 6.3 SSE 14.2 SSE 0.0 286.0
12:15 6.4 76.7 4.9 SSE 14.2 S 0.0 403.5
12:20 6.9 74.1 4.8 SE 14.2 ESE 0.0 443.6
12:25 7.2 71.5 4.5 SSE 16.9 SE 0.0 407.2
12:30 7.4 70.2 4.6 SE 16.9 SSE 0.0 486.7
12:35 7.4 69.7 6.0 SE 14.2 SE 0.0 478.0
12:40 7.6 69.3 7.0 SE 16.9 S 0.0 379.4
12:45 7.3 70.3 7.3 SSE 16.9 SSE 0.0 266.6
12:50 6.9 71.6 4.6 SE 11.5 SE 0.0 205.2
12:55 6.7 73.7 5.9 SE 14.2 S 0.0 235.3
13:00 6.8 74.5 4.4 S 11.5 SE 0.0 322.0
13:05 6.8 73.1 3.7 SE 8.8 NNE 0.0 175.5
13:10 6.6 73.2 2.5 ESE 8.8 ESE 0.0 156.7
13:15 6.5 74.4 3.4 ESE 8.8 ESE 0.0 128.9
13:20 6.4 74.8 3.0 SE 11.5 ENE 0.0 131.7
13:25 6.4 75.0 1.1 S 6.1 ESE 0.0 169.8
13:30 6.4 74.3 2.6 SSW 8.8 SW 0.0 176.5
13:35 6.4 73.8 1.2 WSW 6.1 SW 0.0 176.6
13:40 6.5 71.5 0.4 SE 3.4 SE 0.0 107.1
13:45 6.5 71.1 0.3 W 3.4 WNW 0.0 94.9
13:50 6.4 71.4 0.3 ENE 3.4 ENE 0.0 110.9
13:55 6.5 70.7 0.1 W 3.4 WNW 0.0 113.8
14:00 6.5 70.8 1.1 WNW 3.4 W 0.0 86.9
14:05 6.5 71.8 0.8 WNW 3.4 WNW 0.0 105.4
14:10 6.5 71.8 0.7 WNW 3.4 W 0.0 103.8
14:15 6.5 72.1 0.1 SW 3.4 WSW 0.0 76.2
14:20 6.5 71.7 0.0 NNE 0.0 WSW 0.0 60.8
14:25 6.5 72.4 0.0 NNE 0.0 WNW 0.0 56.8
14:30 6.3 75.2 0.6 SSE 3.4 S 0.0 50.4
14:35 6.1 76.6 1.8 WNW 6.1 WNW 0.0 43.7
14:40 5.9 77.6 0.5 WNW 3.4 WNW 0.0 48.6
14:45 5.9 77.7 0.0 NNE 0.0 WNW 0.0 51.6
14:50 5.8 77.0 0.0 NNE 0.0 NW 0.0 90.7
14:55 6.0 76.5 0.1 WNW 3.4 NW 0.0 145.2
15:00 6.5 76.5 0.6 SW 6.1 SSW 0.0 214.6
15:05 6.7 75.9 4.4 SSW 8.8 SSW 0.0 217.7
15:10 6.7 75.0 4.2 SW 8.8 SW 0.0 154.1
15:15 6.6 76.2 0.9 WSW 6.1 SW 0.0 94.6
15:20 6.4 76.1 0.3 SW 3.4 WSW 0.0 95.7
15:25 6.3 77.8 0.6 SSE 6.1 SSE 0.0 81.3
15:30 6.1 78.9 0.6 SE 6.1 ESE 0.0 70.6
15:35 6.0 75.6 2.4 SE 8.8 SE 0.0 62.8
15:40 5.8 74.1 2.1 ESE 6.1 SE 0.0 53.0
15:45 5.7 73.7 0.9 WNW 6.1 WNW 0.0 36.1
15:50 5.4 75.4 4.1 W 8.8 W 0.0 25.5
15:55 5.3 75.7 6.5 WNW 11.5 NW 0.0 21.5
16:00 5.3 74.6 2.6 NNW 8.8 WNW 0.0 17.4
16:05 5.4 73.8 1.3 E 6.1 ENE 0.0 14.1
16:10 5.3 75.5 1.2 ESE 6.1 ESE 0.0 11.4
16:15 5.1 76.6 0.4 SE 3.4 SSE 0.0 9.3
16:20 4.8 78.1 0.4 W 3.4 WNW 0.0 7.4
16:25 4.7 78.7 1.9 W 3.4 WNW 0.0 5.2
16:30 4.5 79.4 2.6 SW 6.1 WSW 0.0 3.3
16:35 4.2 80.6 5.1 WSW 8.8 SW 0.0 2.1
16:40 4.0 81.5 3.1 SW 8.8 SSW 0.0 1.1
16:45 3.6 84.4 3.2 SW 8.8 SSW 0.0 0.5
16:50 3.3 86.4 6.4 WSW 11.5 WSW 0.0 0.3
16:55 3.1 87.0 6.2 WSW 11.5 WSW 0.0 0.1
17:00 3.1 87.3 2.7 WSW 6.1 W 0.0 0.2
17:05 2.9 87.6 0.8 SW 6.1 W 0.0 0.1
17:10 2.9 87.5 0.6 WSW 3.4 SW 0.0 0.1
17:15 2.9 87.0 0.3 WSW 3.4 W 0.0 0.1
17:20 3.1 85.6 0.0 NNE 0.0 NNW 0.0 0.1
17:25 3.2 85.5 0.1 N 3.4 N 0.0 0.1
17:30 3.3 85.2 0.7 SW 3.4 SSW 0.0 0.2
17:35 2.9 86.9 0.3 SW 3.4 SW 0.0 0.2
17:40 2.8 87.8 1.6 SSW 6.1 SSW 0.0 0.1
17:45 2.7 88.6 0.9 WSW 6.1 WSW 0.0 0.1
17:50 2.6 89.1 0.4 SW 3.4 SSW 0.0 0.2
17:55 2.5 89.4 0.1 W 3.4 W 0.0 0.2
18:00 2.6 89.1 0.2 S 6.1 SSE 0.0 0.1
18:05 2.5 89.3 2.8 SSW 6.1 SSW 0.0 0.2
18:10 2.2 90.3 2.5 SW 6.1 WSW 0.0 0.2
18:15 2.0 91.0 0.1 SSW 3.4 SSW 0.0 0.1
18:20 2.0 91.5 0.6 SSW 6.1 SSW 0.0 0.2
18:25 1.9 91.2 0.5 WNW 3.4 WNW 0.0 0.2
18:30 1.9 91.8 0.7 SW 6.1 SW 0.0 0.1
18:35 2.0 91.1 0.6 SW 3.4 SW 0.0 0.2
18:40 1.9 90.9 0.1 SW 3.4 SW 0.0 0.2
18:45 1.8 91.6 0.0 NNE 0.0 SSW 0.0 0.2
18:50 1.9 92.5 0.9 NE 3.4 NE 0.0 0.1
18:55 2.0 93.3 0.6 NE 3.4 NE 0.0 0.2
19:00 2.0 93.3 0.0 NNE 0.0 ENE 0.0 0.2
19:05 1.9 92.7 0.0 NNE 0.0 ESE 0.0 0.2
19:10 1.7 93.0 0.0 NNE 0.0 ESE 0.0 0.1
19:15 1.5 93.2 0.0 SW 3.4 SSW 0.0 0.2
19:20 1.3 93.9 1.1 SW 6.1 SW 0.0 0.2
19:25 1.3 94.3 1.4 WSW 6.1 W 0.0 0.2
19:30 1.2 94.5 1.3 WSW 6.1 WSW 0.0 0.1
19:35 1.3 94.4 0.2 NW 6.1 WNW 0.0 0.1
19:40 1.2 94.0 0.0 NNE 0.0 WNW 0.0 0.2
19:45 1.2 93.3 2.2 W 6.1 NW 0.0 0.1
19:50 1.2 92.6 3.7 NW 8.8 W 0.0 0.1
19:55 1.6 89.8 4.7 NNW 11.5 NW 0.0 0.1
20:00 1.5 89.8 2.5 WSW 6.1 W 0.0 0.1
20:05 1.3 90.4 2.4 SW 8.8 SSW 0.0 0.1
20:10 1.1 90.9 0.0 NNE 0.0 SSW 0.0 0.1
20:15 1.0 91.3 0.5 WSW 6.1 WSW 0.0 0.2
20:20 0.8 92.0 3.1 W 6.1 W 0.0 0.2
20:25 0.8 92.4 0.8 WNW 6.1 WNW 0.0 0.2
20:30 0.8 92.1 2.4 SW 6.1 SW 0.0 0.1
20:35 0.6 92.9 0.2 N 6.1 NNW 0.0 0.1
Màxima 7.6 97.7 10.0 NNE 19.6 NE 0.0 487.2
Mínima -0.4 63.0
Total 0.0